Cockrell Hill, Texas
Current Conditions -  °F | °C
As of 2:36 AM on Sunday 23 Nov 2014 (Local Time) from KRBD Reporting Station
Haze Haze  
Wind Chill: 14°   Ceiling: 400
Heat Index: 14°   Visibility: 0.75mi
Dew Point: 12°   Wind: 3mph
Humidity: 89%   Direction: 170°S
Pressure: 29.63"   Gusts: NA
Location:  32.7371°N, 96.9045°W
Report Text: KRBD 230836Z 17003KT 3/4SM BR VV004 14/12 A2963 RMK AO2 T01390122
Loading
Personal Weather Stations






























Interactive Weather Map New forecast layout! Learn more

10-Day Weather Forecast

Advertisements
Track Severe Weather on mobile